CA-0402 weather

CLOSED Washademoak Airport
New Brunswick, Canada

Public forecast

Using degrees Celsius for public forecast. Weather courtesy of forecast.io.

METAR (pilot weather report)

Closest report is CFB Gagetown Heliport, 24.6 nm (45.5 km) W. Retrieved 2019/08/19 16:00 UTC (29 minutes ago):

CYCX 191600Z 19004KT 120V230 15SM SCT025 BKN070 24/20 A2994 RMK SC3AC3 DA1569FT SLP140

TAF (pilot weather forecast)

Closest forecast is CFB Gagetown Heliport, 24.6 nm (45.5 km) W. Retrieved 2019/08/19 12:33 UTC (4 hours ago):

TAF CYCX 191130Z 1912/1924 VRB03KT 1/2SM -DZ FG OVC003 TEMPO 1912/1914 2SM -SHRA BR OVC008 FM191400 VRB03KT 2SM -SHRA BR OVC008 TEMPO 1914/1916 P6SM NSW SCT012 OVC020 BECMG 1914/1916 19005KT FM191600 19005KT P6SM OVC020 TEMPO 1916/1924 P6SM -SHRA OVC010 BECMG 1918/1920 19010KT RMK NXT FCST BY 191800Z